Aérodrome :
LOGIN :

S'inscrire | Disclaimer

   EN    FR    IT 

 










Légende :    VFR   VFR Marginal   IFR   IFR Intensif   IFR Très Intensif
Visi : 
Plafond : 
>= 8 km
>= 3000ft
5 à 8 km
1000 à 3000 ft
1500m à 5 km
500 à 1000 ft
800 à 1500m
200 à 500 ft
< 800m
< 200 ft
Symboles :   Orages  Brouillard  Fortes neiges  Fortes précipitations  Vent > 20 kt
SIGMETs :   Divers  Orages  Givrage  Turbulence  Onde Orograph.  Cendres Volcan.







- Altitude de l'aérodrome : 364 ft
- Code IATA : FRA


EDDF - Frankfurt Int.

DERNIER METAR :
  • 280020Z 22009KT 9999 SCT043 16/15 Q1009 NOSIG

METARs EXPIRÉS :
  • 272350Z 22010KT 9999 FEW025 SCT130 16/15 Q1009 NOSIG
  • 272320Z 22008KT 9999 FEW025 BKN130 17/15 Q1009 NOSIG
  • 272250Z 21008KT CAVOK 17/15 Q1009 NOSIG
  • 272220Z 21007KT CAVOK 17/15 Q1008 NOSIG
  • 272150Z 21010KT 9999 FEW025 BKN140 17/15 Q1008 NOSIG

TAF TAF EDDF
Valide du 28 à 00h jusqu'au 29 à 06h UTC


272300Z 2800/2906 23006KT 9999 SCT040
BECMG 2807/2809 23012KT
PROB30
TEMPO 2810/2816 24015G25KT
BECMG 2818/2820 19005KT
Pas de NOTAMs connus pour ce terrain.



MET'MAP, la Météo Aéronautique d'un coup d'oeil ! - Copyright ORBIFLY Décembre 2007 - Disclaimer

ORBIFLY MET'MAP TEAM :

Programmation & Développement : Alexandra Zaïnal
Conception & Développement : Baudouin d'Aumeries
Co-Programmation & Développement : Marc-Olivier Méhu
Soutien technique & logistique : Manuel Goepfert

Contact : metmap@orbifly.com




SOURCES & CREDITS :

   NOAA